createdAt,value
2022-07-30T00:01:42.752Z,101194.78
2022-07-30T00:04:06.986Z,101194.13
2022-07-30T00:06:30.744Z,101197.25
2022-07-30T00:08:54.460Z,101196.59
2022-07-30T00:11:18.067Z,101193.22
2022-07-30T00:13:41.816Z,101190.00
2022-07-30T00:16:06.129Z,101195.78
2022-07-30T00:18:31.377Z,101184.38
2022-07-30T00:20:56.417Z,101185.59
2022-07-30T00:23:20.255Z,101188.88
2022-07-30T00:25:44.293Z,101187.69
2022-07-30T00:28:08.129Z,101189.09
2022-07-30T00:30:31.900Z,101189.28
2022-07-30T00:32:55.643Z,101191.88
2022-07-30T00:35:20.979Z,101183.00
2022-07-30T00:37:44.724Z,101188.66
2022-07-30T00:40:10.332Z,101181.00
2022-07-30T00:42:45.006Z,101175.88
2022-07-30T00:45:10.953Z,101173.34
2022-07-30T00:47:34.659Z,101174.56
2022-07-30T00:49:58.437Z,101181.03
2022-07-30T00:52:23.599Z,101177.28
2022-07-30T00:54:47.370Z,101168.41
2022-07-30T00:57:11.057Z,101177.63
2022-07-30T00:59:34.993Z,101167.25
2022-07-30T01:02:01.796Z,101170.34
2022-07-30T01:04:25.603Z,101173.22
2022-07-30T01:06:49.352Z,101174.47
2022-07-30T01:09:14.480Z,101171.84
2022-07-30T01:11:41.539Z,101175.59
2022-07-30T01:14:07.142Z,101174.09
2022-07-30T01:16:31.459Z,101170.53
2022-07-30T01:19:14.980Z,101175.09
2022-07-30T01:21:43.212Z,101171.72
2022-07-30T01:24:23.806Z,101177.19
2022-07-30T01:26:50.196Z,101167.97
2022-07-30T01:29:16.595Z,101171.75
2022-07-30T01:31:43.415Z,101171.38
2022-07-30T01:34:09.711Z,101171.75
2022-07-30T01:36:35.484Z,101167.16
2022-07-30T01:39:01.735Z,101170.41
2022-07-30T01:41:26.364Z,101167.03
2022-07-30T01:43:53.708Z,101170.28
2022-07-30T01:46:19.117Z,101173.66
2022-07-30T01:48:47.016Z,101168.38
2022-07-30T01:51:13.178Z,101172.84
2022-07-30T01:53:42.104Z,101165.34
2022-07-30T01:56:07.120Z,101165.69
2022-07-30T01:58:39.938Z,101165.00
2022-07-30T02:01:22.801Z,101160.59
2022-07-30T02:03:47.769Z,101158.22
2022-07-30T02:06:19.157Z,101157.38
2022-07-30T02:08:49.188Z,101158.53
2022-07-30T02:11:39.171Z,101157.72
2022-07-30T02:14:14.945Z,101163.84
2022-07-30T02:16:43.316Z,101158.53
2022-07-30T02:19:14.916Z,101164.69
2022-07-30T02:21:50.555Z,101164.03
2022-07-30T02:24:21.045Z,101166.06
2022-07-30T02:26:47.486Z,101171.53
2022-07-30T02:29:12.189Z,101169.31
2022-07-30T02:31:40.090Z,101161.66
2022-07-30T02:34:07.727Z,101157.41
2022-07-30T02:36:32.639Z,101158.59
2022-07-30T02:38:57.976Z,101155.38
2022-07-30T02:41:23.765Z,101163.19
2022-07-30T02:43:49.977Z,101153.66
2022-07-30T02:46:15.749Z,101144.47
2022-07-30T02:49:05.149Z,101142.97
2022-07-30T02:51:32.415Z,101145.81
2022-07-30T02:53:58.436Z,101147.19
2022-07-30T02:56:24.155Z,101149.75
2022-07-30T02:58:48.605Z,101146.66
2022-07-30T03:01:15.533Z,101147.69
2022-07-30T03:03:41.491Z,101149.56
2022-07-30T03:06:07.759Z,101137.81
2022-07-30T03:08:33.252Z,101144.13
2022-07-30T03:10:58.700Z,101147.53
2022-07-30T03:13:23.293Z,101149.56
2022-07-30T03:15:51.885Z,101151.44
2022-07-30T03:18:21.008Z,101153.47
2022-07-30T03:20:50.890Z,101153.81
2022-07-30T03:23:19.724Z,101161.34
2022-07-30T03:25:47.537Z,101157.41
2022-07-30T03:28:13.876Z,101156.88
2022-07-30T03:30:38.000Z,101157.22
2022-07-30T03:33:02.709Z,101162.84
2022-07-30T03:35:27.656Z,101164.06
2022-07-30T03:37:57.007Z,101160.66
2022-07-30T03:40:23.793Z,101172.56
2022-07-30T03:42:47.971Z,101162.03
2022-07-30T03:45:16.444Z,101168.50
2022-07-30T03:47:42.828Z,101168.97
2022-07-30T03:50:09.821Z,101168.78
2022-07-30T03:52:36.737Z,101170.81
2022-07-30T03:55:08.983Z,101177.13
2022-07-30T03:57:37.208Z,101174.91
2022-07-30T04:00:01.197Z,101188.84
2022-07-30T04:02:25.363Z,101196.13
2022-07-30T04:05:24.720Z,101197.25
2022-07-30T04:07:49.273Z,101195.84
2022-07-30T04:10:17.980Z,101197.22
2022-07-30T04:13:09.421Z,101203.94
2022-07-30T04:16:36.870Z,101203.78
2022-07-30T04:18:30.123Z,101198.84
2022-07-30T04:20:55.305Z,101199.06
2022-07-30T04:23:19.709Z,101200.75
2022-07-30T04:25:45.023Z,101210.97
2022-07-30T04:28:12.260Z,101205.16
2022-07-30T04:30:35.967Z,101209.28
2022-07-30T04:32:59.772Z,101207.06
2022-07-30T04:35:51.476Z,101208.78
2022-07-30T04:38:36.552Z,101210.81
2022-07-30T04:41:00.316Z,101215.06
2022-07-30T04:43:29.184Z,101211.19
2022-07-30T04:45:53.418Z,101222.59
2022-07-30T04:48:17.647Z,101215.78
2022-07-30T04:50:51.136Z,101221.41
2022-07-30T04:53:16.963Z,101213.22
2022-07-30T04:55:48.613Z,101218.53
2022-07-30T04:58:15.067Z,101222.59
2022-07-30T05:00:41.754Z,101220.19
2022-07-30T05:03:13.913Z,101221.75
2022-07-30T05:05:42.317Z,101213.41
2022-07-30T05:08:07.056Z,101213.59
2022-07-30T05:10:31.257Z,101214.75
2022-07-30T05:12:55.515Z,101213.41
2022-07-30T05:15:20.440Z,101211.00
2022-07-30T05:17:46.219Z,101213.22
2022-07-30T05:20:12.318Z,101216.94
2022-07-30T05:22:51.851Z,101215.75
2022-07-30T05:25:18.159Z,101211.50
2022-07-30T05:27:42.116Z,101211.16
2022-07-30T05:30:07.515Z,101205.19
2022-07-30T05:32:38.837Z,101200.56
2022-07-30T05:35:04.473Z,101207.72
2022-07-30T05:37:28.586Z,101209.91
2022-07-30T05:40:02.926Z,101205.81
2022-07-30T05:42:46.145Z,101201.66
2022-07-30T05:45:11.171Z,101205.59
2022-07-30T05:47:36.296Z,101193.50
2022-07-30T05:50:04.357Z,101200.50
2022-07-30T05:52:30.419Z,101204.56
2022-07-30T05:55:00.746Z,101212.19
2022-07-30T05:57:47.797Z,101209.00
2022-07-30T06:00:14.220Z,101212.13
2022-07-30T06:02:40.876Z,101209.41
2022-07-30T06:05:05.202Z,101204.28
2022-07-30T06:07:30.534Z,101204.72
2022-07-30T06:10:00.201Z,101204.84
2022-07-30T06:12:24.926Z,101207.84
2022-07-30T06:14:48.740Z,101209.84
2022-07-30T06:17:19.556Z,101213.53
2022-07-30T06:20:03.649Z,101217.56
2022-07-30T06:22:35.795Z,101220.22
2022-07-30T06:25:06.113Z,101223.66
2022-07-30T06:27:32.447Z,101225.94
2022-07-30T06:29:57.840Z,101225.53
2022-07-30T06:32:21.691Z,101229.72
2022-07-30T06:34:45.518Z,101224.69
2022-07-30T06:37:09.486Z,101229.81
2022-07-30T06:39:57.149Z,101238.56
2022-07-30T06:42:34.173Z,101235.56
2022-07-30T06:45:25.815Z,101239.56
2022-07-30T06:48:25.433Z,101234.44
2022-07-30T06:50:50.064Z,101236.66
2022-07-30T06:53:14.099Z,101241.75
2022-07-30T06:56:02.370Z,101246.97
2022-07-30T06:58:35.486Z,101247.41
2022-07-30T07:01:17.948Z,101247.63
2022-07-30T07:03:41.860Z,101248.69
2022-07-30T07:06:06.233Z,101250.59
2022-07-30T07:08:31.803Z,101254.13
2022-07-30T07:10:55.823Z,101253.56
2022-07-30T07:13:29.528Z,101253.00
2022-07-30T07:15:54.821Z,101244.50
2022-07-30T07:18:20.448Z,101253.25
2022-07-30T07:20:49.536Z,101252.59
2022-07-30T07:23:13.830Z,101252.81
2022-07-30T07:25:38.786Z,101244.66
2022-07-30T07:28:12.324Z,101241.94
2022-07-30T07:30:41.549Z,101240.25
2022-07-30T07:33:05.612Z,101235.63
2022-07-30T07:35:29.461Z,101238.44
2022-07-30T07:37:53.163Z,101234.50
2022-07-30T07:40:19.754Z,101234.97
2022-07-30T07:42:43.592Z,101241.72
2022-07-30T07:45:08.947Z,101236.97
2022-07-30T07:47:53.233Z,101238.38
2022-07-30T07:50:39.731Z,101242.81
2022-07-30T07:53:06.988Z,101236.13
2022-07-30T07:55:33.635Z,101247.88
2022-07-30T07:57:57.678Z,101250.78
2022-07-30T08:00:21.564Z,101254.19
2022-07-30T08:02:45.366Z,101252.78
2022-07-30T08:05:12.568Z,101260.34
2022-07-30T08:07:49.476Z,101245.00
2022-07-30T08:10:16.082Z,101250.38
2022-07-30T08:12:58.435Z,101255.53
2022-07-30T08:15:45.695Z,101254.72
2022-07-30T08:18:42.067Z,101249.00
2022-07-30T08:21:15.428Z,101242.06
2022-07-30T08:23:42.528Z,101253.56
2022-07-30T08:26:06.924Z,101248.34
2022-07-30T08:28:35.926Z,101242.88
2022-07-30T08:31:02.606Z,101246.47
2022-07-30T08:33:27.440Z,101247.81
2022-07-30T08:35:52.867Z,101246.09
2022-07-30T08:38:25.175Z,101244.53
2022-07-30T08:40:49.207Z,101238.78
2022-07-30T08:43:13.064Z,101236.75
2022-07-30T08:45:38.345Z,101251.34
2022-07-30T08:48:23.133Z,101244.44
2022-07-30T08:50:47.785Z,101249.50
2022-07-30T08:53:38.985Z,101252.56
2022-07-30T08:56:04.552Z,101254.84
2022-07-30T08:58:33.700Z,101260.78
2022-07-30T09:00:57.745Z,101262.31
2022-07-30T09:03:21.501Z,101257.53
2022-07-30T09:05:46.546Z,101250.97
2022-07-30T09:08:10.250Z,101251.28
2022-07-30T09:10:35.645Z,101247.28
2022-07-30T09:12:59.401Z,101246.09
2022-07-30T09:15:25.566Z,101245.03
2022-07-30T09:17:56.667Z,101241.91
2022-07-30T09:20:23.546Z,101237.19
2022-07-30T09:22:49.657Z,101240.84
2022-07-30T09:25:38.692Z,101240.84
2022-07-30T09:28:31.440Z,101244.66
2022-07-30T09:31:10.448Z,101241.03
2022-07-30T09:33:52.824Z,101241.03
2022-07-30T09:36:18.130Z,101239.41
2022-07-30T09:39:04.802Z,101240.28
2022-07-30T09:41:59.789Z,101247.91
2022-07-30T09:44:25.976Z,101246.41
2022-07-30T09:46:52.876Z,101245.16
2022-07-30T09:49:25.178Z,101250.44
2022-07-30T09:51:56.005Z,101244.09
2022-07-30T09:54:21.998Z,101250.44
2022-07-30T09:56:54.036Z,101245.13
2022-07-30T09:59:34.746Z,101242.38
2022-07-30T10:02:03.963Z,101242.72
2022-07-30T10:04:47.547Z,101242.97
2022-07-30T10:07:25.488Z,101244.09
2022-07-30T10:09:54.323Z,101232.19
2022-07-30T10:12:18.876Z,101235.25
2022-07-30T10:14:51.112Z,101234.06
2022-07-30T10:17:17.504Z,101234.13
2022-07-30T10:20:18.066Z,101234.06
2022-07-30T10:23:08.090Z,101235.22
2022-07-30T10:25:33.166Z,101226.75
2022-07-30T10:28:06.926Z,101228.72
2022-07-30T10:30:34.167Z,101236.97
2022-07-30T10:32:59.935Z,101230.41
2022-07-30T10:35:34.638Z,101233.38
2022-07-30T10:38:03.283Z,101232.63
2022-07-30T10:40:32.594Z,101242.16
2022-07-30T10:43:36.424Z,101237.94
2022-07-30T10:46:20.088Z,101229.75
2022-07-30T10:48:46.819Z,101229.19
2022-07-30T10:51:11.241Z,101225.94
2022-07-30T10:53:49.329Z,101234.38
2022-07-30T10:56:15.750Z,101221.69
2022-07-30T10:59:07.687Z,101225.94
2022-07-30T11:02:13.371Z,101225.38
2022-07-30T11:04:42.039Z,101217.59
2022-07-30T11:07:31.736Z,101221.53
2022-07-30T11:10:05.898Z,101222.97
2022-07-30T11:12:54.953Z,101229.63
2022-07-30T11:15:19.803Z,101216.56
2022-07-30T11:18:13.093Z,101216.38
2022-07-30T11:20:38.152Z,101218.47
2022-07-30T11:23:39.477Z,101214.81
2022-07-30T11:26:04.088Z,101219.88
2022-07-30T11:28:43.315Z,101213.13
2022-07-30T11:31:54.847Z,101210.00
2022-07-30T11:34:31.479Z,101207.22
2022-07-30T11:37:18.517Z,101210.97
2022-07-30T11:40:13.084Z,101209.47
2022-07-30T11:42:38.943Z,101212.28
2022-07-30T11:45:33.539Z,101208.91
2022-07-30T11:48:01.059Z,101216.03
2022-07-30T11:50:29.299Z,101205.03
2022-07-30T11:52:54.255Z,101210.88
2022-07-30T11:55:25.624Z,101205.53
2022-07-30T11:57:49.371Z,101218.66
2022-07-30T12:00:14.108Z,101212.75
2022-07-30T12:02:41.012Z,101205.78
2022-07-30T12:05:05.023Z,101209.50
2022-07-30T12:07:30.200Z,101209.06
2022-07-30T12:09:54.390Z,101204.03
2022-07-30T12:12:24.307Z,101211.69
2022-07-30T12:14:47.969Z,101205.16
2022-07-30T12:17:14.996Z,101213.16
2022-07-30T12:19:48.076Z,101211.44
2022-07-30T12:22:12.250Z,101205.50
2022-07-30T12:24:37.841Z,101203.63
2022-07-30T12:27:06.855Z,101204.84
2022-07-30T12:29:32.196Z,101211.72
2022-07-30T12:31:56.356Z,101208.31
2022-07-30T12:34:25.025Z,101215.03
2022-07-30T12:36:49.030Z,101222.75
2022-07-30T12:39:21.467Z,101220.84
2022-07-30T12:41:49.527Z,101223.50
2022-07-30T12:44:40.084Z,101213.19
2022-07-30T12:47:05.089Z,101204.91
2022-07-30T12:49:39.373Z,101208.63
2022-07-30T12:52:13.241Z,101199.78
2022-07-30T12:54:43.217Z,101208.50
2022-07-30T12:57:08.371Z,101201.94
2022-07-30T12:59:33.876Z,101208.16
2022-07-30T13:02:00.548Z,101198.56
2022-07-30T13:04:25.248Z,101206.59
2022-07-30T13:07:08.218Z,101191.56
2022-07-30T13:09:32.225Z,101193.97
2022-07-30T13:11:55.980Z,101201.69
2022-07-30T13:14:23.666Z,101190.19
2022-07-30T13:16:50.872Z,101195.31
2022-07-30T13:19:14.542Z,101194.19
2022-07-30T13:21:38.817Z,101187.09
2022-07-30T13:24:03.451Z,101191.56
2022-07-30T13:26:29.488Z,101189.59
2022-07-30T13:28:53.208Z,101199.59
2022-07-30T13:31:18.343Z,101191.34
2022-07-30T13:33:42.587Z,101197.56
2022-07-30T13:36:06.822Z,101193.84
2022-07-30T13:38:30.539Z,101191.31
2022-07-30T13:40:57.955Z,101190.59
2022-07-30T13:43:25.032Z,101197.41
2022-07-30T13:45:48.834Z,101194.19
2022-07-30T13:48:14.264Z,101186.28
2022-07-30T13:50:38.319Z,101191.72
2022-07-30T13:53:02.815Z,101195.09
2022-07-30T13:55:26.763Z,101185.06
2022-07-30T13:57:50.444Z,101180.41
2022-07-30T14:00:15.464Z,101174.34
2022-07-30T14:02:39.188Z,101166.94
2022-07-30T14:05:07.169Z,101175.09
2022-07-30T14:07:30.993Z,101180.81
2022-07-30T14:09:54.828Z,101183.19
2022-07-30T14:12:18.640Z,101179.59
2022-07-30T14:14:42.337Z,101185.06
2022-07-30T14:17:06.061Z,101173.94
2022-07-30T14:19:29.756Z,101175.94
2022-07-30T14:21:55.641Z,101182.69
2022-07-30T14:24:19.366Z,101177.75
2022-07-30T14:26:43.181Z,101171.63
2022-07-30T14:29:07.084Z,101170.81
2022-07-30T14:31:30.780Z,101172.59
2022-07-30T14:33:54.493Z,101174.25
2022-07-30T14:36:18.307Z,101170.75
2022-07-30T14:38:43.418Z,101174.88
2022-07-30T14:41:07.368Z,101176.28
2022-07-30T14:43:31.317Z,101162.78
2022-07-30T14:45:55.035Z,101163.31
2022-07-30T14:48:19.040Z,101162.66
2022-07-30T14:51:11.625Z,101173.34
2022-07-30T14:53:26.641Z,101178.66
2022-07-30T14:55:51.989Z,101167.28
2022-07-30T14:58:15.784Z,101172.53
2022-07-30T15:00:48.998Z,101165.88
2022-07-30T15:03:12.980Z,101175.63
2022-07-30T15:05:36.728Z,101181.09
2022-07-30T15:08:00.601Z,101183.03
2022-07-30T15:10:24.704Z,101187.56
2022-07-30T15:12:50.425Z,101187.97
2022-07-30T15:15:14.765Z,101183.91
2022-07-30T15:17:40.205Z,101182.38
2022-07-30T15:20:04.520Z,101182.69
2022-07-30T15:22:28.451Z,101180.78
2022-07-30T15:24:52.147Z,101181.03
2022-07-30T15:27:15.999Z,101179.31
2022-07-30T15:29:41.178Z,101177.50
2022-07-30T15:32:06.057Z,101177.84
2022-07-30T15:34:34.252Z,101167.50
2022-07-30T15:36:58.286Z,101177.56
2022-07-30T15:39:22.075Z,101175.63
2022-07-30T15:41:45.945Z,101175.75
2022-07-30T15:44:09.620Z,101170.66
2022-07-30T15:46:34.851Z,101161.66
2022-07-30T15:48:58.588Z,101169.88
2022-07-30T15:51:22.387Z,101166.81
2022-07-30T15:53:46.083Z,101169.25
2022-07-30T15:56:09.778Z,101165.16
2022-07-30T15:58:33.679Z,101162.31
2022-07-30T16:00:57.579Z,101165.00
2022-07-30T16:03:22.995Z,101160.66
2022-07-30T16:05:52.381Z,101169.34
2022-07-30T16:08:17.078Z,101161.88
2022-07-30T16:10:41.140Z,101171.72
2022-07-30T16:13:04.829Z,101166.28
2022-07-30T16:15:28.833Z,101167.34
2022-07-30T16:17:52.609Z,101165.69
2022-07-30T16:20:17.828Z,101164.34
2022-07-30T16:22:41.547Z,101162.94
2022-07-30T16:25:05.729Z,101165.94
2022-07-30T16:27:29.514Z,101159.38
2022-07-30T16:29:53.435Z,101168.22
2022-07-30T16:32:17.148Z,101171.00
2022-07-30T16:34:40.837Z,101164.88
2022-07-30T16:37:06.011Z,101176.19
2022-07-30T16:39:30.547Z,101176.56
2022-07-30T16:41:54.441Z,101176.34
2022-07-30T16:44:18.172Z,101174.38
2022-07-30T16:46:41.920Z,101178.53
2022-07-30T16:49:06.008Z,101176.03
2022-07-30T16:51:29.718Z,101184.31
2022-07-30T16:53:54.848Z,101185.41
2022-07-30T16:56:18.791Z,101178.72
2022-07-30T16:58:42.517Z,101176.44
2022-07-30T17:01:06.321Z,101184.25
2022-07-30T17:03:30.247Z,101177.66
2022-07-30T17:05:54.812Z,101182.00
2022-07-30T17:08:18.588Z,101182.00
2022-07-30T17:10:49.851Z,101170.41
2022-07-30T17:13:13.600Z,101185.50
2022-07-30T17:15:37.463Z,101185.25
2022-07-30T17:18:01.180Z,101183.94
2022-07-30T17:20:25.160Z,101191.78
2022-07-30T17:22:48.876Z,101190.91
2022-07-30T17:25:12.618Z,101200.69
2022-07-30T17:27:37.897Z,101190.06
2022-07-30T17:30:01.864Z,101201.38
2022-07-30T17:32:25.512Z,101198.72
2022-07-30T17:34:50.036Z,101197.13
2022-07-30T17:37:13.796Z,101197.22
2022-07-30T17:40:27.766Z,101197.44
2022-07-30T17:42:21.329Z,101204.94
2022-07-30T17:44:46.430Z,101197.41
2022-07-30T17:47:15.157Z,101202.91
2022-07-30T17:49:40.296Z,101201.38
2022-07-30T17:52:04.672Z,101200.09
2022-07-30T17:54:28.736Z,101205.72
2022-07-30T17:56:52.851Z,101203.44
2022-07-30T17:59:16.583Z,101212.13
2022-07-30T18:01:41.784Z,101204.13
2022-07-30T18:04:05.833Z,101205.84
2022-07-30T18:06:29.712Z,101210.50
2022-07-30T18:08:53.408Z,101203.56
2022-07-30T18:11:17.277Z,101203.38
2022-07-30T18:13:41.044Z,101209.28
2022-07-30T18:16:04.852Z,101207.41
2022-07-30T18:18:29.967Z,101211.22
2022-07-30T18:20:53.691Z,101219.88
2022-07-30T18:23:19.223Z,101211.00
2022-07-30T18:25:51.536Z,101214.22
2022-07-30T18:28:16.911Z,101215.50
2022-07-30T18:30:41.260Z,101215.09
2022-07-30T18:33:05.177Z,101222.91
2022-07-30T18:35:30.473Z,101218.28
2022-07-30T18:37:54.201Z,101225.88
2022-07-30T18:40:23.967Z,101221.88
2022-07-30T18:42:49.558Z,101220.41
2022-07-30T18:45:14.176Z,101217.63
2022-07-30T18:47:37.973Z,101227.16
2022-07-30T18:50:01.790Z,101230.91
2022-07-30T18:52:27.043Z,101236.00
2022-07-30T18:54:51.715Z,101235.31
2022-07-30T18:57:15.611Z,101235.50
2022-07-30T18:59:39.249Z,101242.00
2022-07-30T19:02:04.800Z,101239.88
2022-07-30T19:04:28.980Z,101236.25
2022-07-30T19:06:52.747Z,101241.06
2022-07-30T19:09:18.342Z,101239.69
2022-07-30T19:11:42.533Z,101244.72
2022-07-30T19:14:06.174Z,101247.19
2022-07-30T19:16:29.865Z,101258.94
2022-07-30T19:18:53.580Z,101253.81
2022-07-30T19:21:17.357Z,101263.28
2022-07-30T19:23:41.072Z,101266.56
2022-07-30T19:26:06.875Z,101267.94
2022-07-30T19:28:30.586Z,101268.28
2022-07-30T19:30:54.337Z,101271.84
2022-07-30T19:33:18.029Z,101272.63
2022-07-30T19:35:42.464Z,101278.69
2022-07-30T19:38:06.916Z,101275.72
2022-07-30T19:40:34.223Z,101276.28
2022-07-30T19:43:06.429Z,101274.97
2022-07-30T19:45:47.212Z,101272.84
2022-07-30T19:48:12.296Z,101274.25
2022-07-30T19:50:36.706Z,101277.19
2022-07-30T19:53:00.526Z,101279.69
2022-07-30T19:55:35.199Z,101276.28
2022-07-30T19:57:59.680Z,101275.63
2022-07-30T20:00:25.944Z,101281.09
2022-07-30T20:02:50.204Z,101277.06
2022-07-30T20:05:14.492Z,101285.19
2022-07-30T20:07:38.487Z,101283.03
2022-07-30T20:10:02.365Z,101288.25
2022-07-30T20:12:27.099Z,101293.94
2022-07-30T20:14:51.253Z,101297.03
2022-07-30T20:17:17.716Z,101290.91
2022-07-30T20:19:47.497Z,101298.28
2022-07-30T20:22:12.572Z,101285.97
2022-07-30T20:24:37.390Z,101286.94
2022-07-30T20:27:01.781Z,101285.44
2022-07-30T20:29:45.547Z,101288.44
2022-07-30T20:32:10.144Z,101287.34
2022-07-30T20:34:35.699Z,101290.44
2022-07-30T20:36:59.404Z,101299.41
2022-07-30T20:39:39.687Z,101291.09
2022-07-30T20:42:13.155Z,101303.19
2022-07-30T20:44:40.835Z,101292.97
2022-07-30T20:47:09.564Z,101292.69
2022-07-30T20:49:35.837Z,101284.38
2022-07-30T20:51:59.904Z,101291.19
2022-07-30T20:54:24.503Z,101294.81
2022-07-30T20:56:48.167Z,101290.09
2022-07-30T20:59:12.536Z,101292.88
2022-07-30T21:01:36.372Z,101293.25
2022-07-30T21:04:00.200Z,101285.97
2022-07-30T21:06:26.208Z,101281.25
2022-07-30T21:08:50.056Z,101281.47
2022-07-30T21:11:14.493Z,101279.47
2022-07-30T21:13:38.383Z,101276.25
2022-07-30T21:16:03.532Z,101269.16
2022-07-30T21:18:27.359Z,101274.53
2022-07-30T21:20:51.029Z,101269.09
2022-07-30T21:23:20.766Z,101273.41
2022-07-30T21:26:01.115Z,101273.25
2022-07-30T21:28:27.728Z,101271.91
2022-07-30T21:31:11.009Z,101277.41
2022-07-30T21:33:34.707Z,101277.59
2022-07-30T21:35:58.428Z,101269.75
2022-07-30T21:38:26.419Z,101265.56
2022-07-30T21:40:50.372Z,101270.56
2022-07-30T21:43:14.088Z,101271.09
2022-07-30T21:45:46.806Z,101272.13
2022-07-30T21:48:18.756Z,101270.09
2022-07-30T21:50:46.061Z,101265.00
2022-07-30T21:53:10.199Z,101267.56
2022-07-30T21:55:52.465Z,101272.03
2022-07-30T21:58:25.820Z,101270.19
2022-07-30T22:01:16.599Z,101266.09
2022-07-30T22:04:04.762Z,101275.31
2022-07-30T22:06:25.125Z,101276.16
2022-07-30T22:08:49.329Z,101268.69
2022-07-30T22:11:14.507Z,101269.53
2022-07-30T22:13:51.151Z,101271.56
2022-07-30T22:16:15.542Z,101267.50
2022-07-30T22:18:39.194Z,101269.03
2022-07-30T22:21:02.999Z,101266.69
2022-07-30T22:23:26.752Z,101270.59
2022-07-30T22:25:51.064Z,101267.88
2022-07-30T22:28:25.304Z,101268.91
2022-07-30T22:30:49.720Z,101272.66
2022-07-30T22:33:16.012Z,101275.19
2022-07-30T22:35:40.210Z,101271.13
2022-07-30T22:38:12.097Z,101272.13
2022-07-30T22:40:36.188Z,101270.78
2022-07-30T22:43:04.065Z,101264.84
2022-07-30T22:45:48.641Z,101272.47
2022-07-30T22:48:13.212Z,101270.28
2022-07-30T22:50:40.051Z,101272.31
2022-07-30T22:53:23.711Z,101256.47
2022-07-30T22:55:48.372Z,101265.16
2022-07-30T22:58:12.496Z,101264.63
2022-07-30T23:00:39.072Z,101263.44
2022-07-30T23:03:02.784Z,101266.50
2022-07-30T23:05:27.639Z,101266.78
2022-07-30T23:07:51.387Z,101267.16
2022-07-30T23:10:20.428Z,101265.94
2022-07-30T23:12:46.659Z,101263.53
2022-07-30T23:15:11.759Z,101260.66
2022-07-30T23:17:37.036Z,101251.78
2022-07-30T23:20:00.771Z,101250.41
2022-07-30T23:22:24.473Z,101252.78
2022-07-30T23:24:48.193Z,101252.44
2022-07-30T23:27:11.962Z,101243.59
2022-07-30T23:29:36.009Z,101239.16
2022-07-30T23:31:59.709Z,101245.09
2022-07-30T23:34:25.131Z,101241.81
2022-07-30T23:36:48.919Z,101250.16
2022-07-30T23:39:13.064Z,101240.47
2022-07-30T23:41:36.763Z,101246.91
2022-07-30T23:44:00.546Z,101251.63
2022-07-30T23:46:24.237Z,101251.47
2022-07-30T23:48:47.935Z,101248.91
2022-07-30T23:51:13.049Z,101251.97
2022-07-30T23:53:36.762Z,101257.06
2022-07-30T23:56:00.475Z,101254.81
2022-07-30T23:58:24.235Z,101257.06
